Time;durP1;ratioP1;P1;durP2;ratioP2;P2;SDS_P1;SDS_P2;PMS_P1;PMS_P2;Temp;Humidity;BMP_temperature;BMP_pressure;BME280_temperature;BME280_humidity;BME280_pressure;Samples;Min_cycle;Max_cycle;Signal;HPM_P1;HPM_P2
2021/11/25 00:02:08;;;;;;;;;21.00;20.00;;;;;-147.17;99.48;50533.00;5033589;28;51097;-63
2021/11/25 00:04:34;;;;;;;;;22.75;20.00;;;;;-147.17;99.42;50517.25;5032270;28;51113;-62
2021/11/25 00:06:59;;;;;;;;;19.25;19.00;;;;;-147.17;99.67;50515.28;5033980;28;50963;-61
2021/11/25 00:09:25;;;;;;;;;21.75;20.50;;;;;-147.17;99.95;50517.25;5036754;28;51152;-62
2021/11/25 00:11:50;;;;;;;;;19.25;18.50;;;;;-147.17;100.00;50544.81;5034104;28;51214;-62
2021/11/25 00:14:16;;;;;;;;;19.75;19.75;;;;;-147.17;100.00;50533.00;5034449;28;51160;-63
2021/11/25 00:16:41;;;;;;;;;25.00;21.75;;;;;-147.17;100.00;50560.56;5047299;28;51105;-62
2021/11/25 00:19:07;;;;;;;;;24.75;21.25;;;;;-147.17;100.00;50531.03;5030963;28;51210;-62
2021/11/25 00:21:33;;;;;;;;;21.50;20.50;;;;;-147.17;100.00;50515.28;5031146;28;52195;-62
2021/11/25 00:23:58;;;;;;;;;27.75;24.00;;;;;-147.17;100.00;50509.38;5032792;28;51134;-62
2021/11/25 00:26:24;;;;;;;;;25.00;20.75;;;;;-147.17;100.00;50540.88;5031557;28;51809;-62
2021/11/25 00:28:49;;;;;;;;;19.75;19.25;;;;;-147.17;100.00;50501.50;5036905;28;51108;-61
2021/11/25 00:31:15;;;;;;;;;23.50;23.00;;;;;-147.17;100.00;50523.16;5034431;28;51641;-61
2021/11/25 00:33:40;;;;;;;;;22.75;21.75;;;;;-147.17;100.00;50521.19;5034309;28;50966;-61
2021/11/25 00:36:05;;;;;;;;;23.00;22.25;;;;;-147.17;100.00;50536.94;5034467;28;50950;-63
2021/11/25 00:38:31;;;;;;;;;26.25;24.00;;;;;-147.17;100.00;50521.19;5032446;28;50855;-61
2021/11/25 00:40:56;;;;;;;;;25.50;22.00;;;;;-147.17;100.00;50536.94;5034021;28;52061;-60
2021/11/25 00:43:22;;;;;;;;;22.75;22.00;;;;;-147.17;100.00;50497.56;5034458;28;51114;-62
2021/11/25 00:45:48;;;;;;;;;26.00;25.25;;;;;-147.17;100.00;50517.25;5032365;28;51104;-61
2021/11/25 00:48:13;;;;;;;;;25.25;23.75;;;;;-147.17;100.00;50525.13;5033327;28;51427;-61
2021/11/25 00:50:39;;;;;;;;;24.50;23.00;;;;;-147.17;100.00;50505.44;5032285;28;51555;-61
2021/11/25 00:53:05;;;;;;;;;25.50;23.75;;;;;-147.17;100.00;50487.72;5033050;28;51069;-60
2021/11/25 00:55:31;;;;;;;;;23.50;21.50;;;;;-147.17;100.00;50519.22;5031586;28;51122;-61
2021/11/25 00:57:56;;;;;;;;;22.50;22.25;;;;;-147.17;100.00;50517.25;5029377;28;51322;-61
2021/11/25 01:00:23;;;;;;;;;22.75;22.75;;;;;-147.17;100.00;50501.50;5032907;28;51791;-61
2021/11/25 01:02:49;;;;;;;;;26.50;23.50;;;;;-147.17;100.00;50525.13;5029087;28;50957;-61
2021/11/25 01:05:16;;;;;;;;;28.50;24.50;;;;;-147.17;100.00;50527.09;5029913;28;50849;-63
2021/11/25 01:07:42;;;;;;;;;24.75;24.25;;;;;-147.17;100.00;50509.38;5037176;28;51095;-62
2021/11/25 01:10:10;;;;;;;;;22.50;19.75;;;;;-147.17;100.00;50505.44;5035134;28;51716;-65
2021/11/25 01:12:36;;;;;;;;;23.25;23.25;;;;;-147.17;100.00;50533.00;5034506;28;51019;-65
2021/11/25 01:15:03;;;;;;;;;18.00;17.25;;;;;-147.17;100.00;50517.25;5033402;28;51297;-61
2021/11/25 01:17:29;;;;;;;;;24.25;22.00;;;;;-147.17;100.00;50509.38;5033364;28;51009;-64
2021/11/25 01:19:54;;;;;;;;;23.50;21.25;;;;;-147.17;100.00;50556.63;5032360;28;51860;-62
2021/11/25 01:22:20;;;;;;;;;19.00;18.75;;;;;-147.17;100.00;50513.31;5032226;28;50991;-65
2021/11/25 01:24:45;;;;;;;;;24.75;23.75;;;;;-147.17;100.00;50489.69;5031954;28;50990;-62
2021/11/25 01:27:11;;;;;;;;;23.00;20.00;;;;;-147.17;100.00;50517.25;5024111;28;51023;-63
2021/11/25 01:29:36;;;;;;;;;23.25;20.25;;;;;-147.17;100.00;50533.00;5031825;28;51508;-63
2021/11/25 01:32:02;;;;;;;;;17.75;15.75;;;;;-147.17;100.00;50527.09;5030906;28;51281;-63
2021/11/25 01:34:28;;;;;;;;;26.00;23.00;;;;;-147.17;100.00;50517.25;5034588;28;50962;-62
2021/11/25 01:36:53;;;;;;;;;22.25;18.25;;;;;-147.17;100.00;50517.25;5030856;28;52061;-63
2021/11/25 01:39:19;;;;;;;;;23.00;18.75;;;;;-147.17;100.00;50517.25;5033401;28;51925;-62
2021/11/25 01:41:47;;;;;;;;;23.00;19.75;;;;;-147.17;100.00;50525.13;5033230;28;51008;-62
2021/11/25 01:44:12;;;;;;;;;19.00;18.25;;;;;-147.17;100.00;50493.63;5033433;28;51222;-60
2021/11/25 01:46:38;;;;;;;;;20.50;20.50;;;;;-147.17;100.00;50538.91;5027239;28;51116;-61
2021/11/25 01:49:03;;;;;;;;;19.25;18.25;;;;;-147.17;100.00;50521.19;5031130;28;51042;-61
2021/11/25 01:51:29;;;;;;;;;21.50;19.00;;;;;-147.17;100.00;50521.19;5018781;28;50870;-61
2021/11/25 01:53:54;;;;;;;;;17.25;17.25;;;;;-147.17;99.84;50525.13;5019776;28;51073;-60
2021/11/25 01:56:20;;;;;;;;;22.00;19.50;;;;;-147.17;99.92;50531.03;5035290;28;51274;-60
2021/11/25 01:58:47;;;;;;;;;19.50;18.50;;;;;-147.17;99.66;50536.94;5035421;28;52684;-61
2021/11/25 02:01:15;;;;;;;;;22.75;18.75;;;;;-147.17;99.23;50515.28;5034811;28;51141;-61
2021/11/25 02:03:41;;;;;;;;;24.25;22.00;;;;;-147.17;99.46;50509.38;5028212;28;51244;-61
2021/11/25 02:06:08;;;;;;;;;20.00;19.25;;;;;-147.17;99.14;50525.13;5034389;28;50912;-61
2021/11/25 02:08:34;;;;;;;;;3679.00;3679.00;;;;;-147.17;98.84;50552.69;5034887;28;51212;-60
2021/11/25 02:10:59;;;;;;;;;18.75;16.50;;;;;-147.17;98.65;50536.94;5034529;28;52879;-60
2021/11/25 02:13:26;;;;;;;;;20.50;18.25;;;;;-147.17;98.36;50548.75;5034047;28;51129;-60
2021/11/25 02:15:52;;;;;;;;;18.25;17.75;;;;;-147.17;98.47;50519.22;5031714;28;51342;-60
2021/11/25 02:18:19;;;;;;;;;20.25;17.75;;;;;-147.17;98.24;50548.75;5034772;28;51710;-60
2021/11/25 02:20:49;;;;;;;;;17.50;17.25;;;;;-147.17;97.83;50540.88;5034818;28;51006;-60
2021/11/25 02:23:16;;;;;;;;;13.50;12.50;;;;;-147.17;97.17;50534.97;5030065;28;51033;-59
2021/11/25 02:25:42;;;;;;;;;17.75;17.25;;;;;-147.17;97.14;50584.19;5032233;28;51244;-60
2021/11/25 02:28:08;;;;;;;;;16.75;16.75;;;;;-147.17;97.15;50536.94;5035459;28;51197;-60
2021/11/25 02:30:35;;;;;;;;;16.50;14.75;;;;;-147.17;96.91;50517.25;5018622;28;51118;-60
2021/11/25 02:33:00;;;;;;;;;17.00;15.25;;;;;-147.17;97.09;50570.41;5033807;28;51232;-61
2021/11/25 02:35:30;;;;;;;;;16.75;15.00;;;;;-147.17;96.99;50562.53;5034157;28;51110;-60
2021/11/25 02:37:56;;;;;;;;;17.75;16.75;;;;;-147.17;96.79;50558.59;5033453;28;52322;-62
2021/11/25 02:40:22;;;;;;;;;18.75;16.75;;;;;-147.17;96.94;50560.56;5031399;28;51114;-60
2021/11/25 02:42:54;;;;;;;;;19.00;19.00;;;;;-147.17;96.59;50576.31;5033920;28;51075;-61
2021/11/25 02:45:21;;;;;;;;;14.25;13.25;;;;;-147.17;96.49;50548.75;5033863;28;51086;-61
2021/11/25 02:47:46;;;;;;;;;14.50;14.50;;;;;-147.17;96.03;50566.47;5033491;28;51968;-61
2021/11/25 02:50:15;;;;;;;;;19.50;17.25;;;;;-147.17;95.92;50568.44;5034792;28;51233;-61
2021/11/25 02:52:41;;;;;;;;;17.00;15.25;;;;;-147.17;95.84;50525.13;5032656;28;51203;-61
2021/11/25 02:55:08;;;;;;;;;18.00;18.00;;;;;-147.17;96.12;50533.00;5034206;28;50941;-61
2021/11/25 02:57:34;;;;;;;;;16.25;13.25;;;;;-147.17;96.34;50566.47;5034568;28;52139;-61
2021/11/25 02:59:59;;;;;;;;;16.75;16.50;;;;;-147.17;96.30;50544.81;5031986;28;51021;-61
2021/11/25 03:02:25;;;;;;;;;17.25;17.25;;;;;-147.17;96.42;50560.56;5028103;28;51134;-61
2021/11/25 03:04:50;;;;;;;;;18.00;16.75;;;;;-147.17;96.23;50544.81;5033625;28;50920;-61
2021/11/25 03:07:16;;;;;;;;;17.25;17.00;;;;;-147.17;96.38;50566.47;5033659;28;52542;-61
2021/11/25 03:09:41;;;;;;;;;15.00;14.00;;;;;-147.17;96.26;50533.00;5024039;28;51079;-61
2021/11/25 03:12:06;;;;;;;;;17.50;15.75;;;;;-147.17;96.63;50527.09;5021640;28;51121;-61
2021/11/25 03:14:32;;;;;;;;;13.50;12.75;;;;;-147.17;96.65;50566.47;5021210;28;51444;-61
2021/11/25 03:16:57;;;;;;;;;15.75;15.50;;;;;-147.17;96.47;50525.13;5034061;28;51117;-61
2021/11/25 03:19:22;;;;;;;;;14.00;13.50;;;;;-147.17;96.48;50542.84;5030464;28;51116;-61
2021/11/25 03:21:48;;;;;;;;;13.75;13.75;;;;;-147.17;96.17;50529.06;5024813;28;51124;-61
2021/11/25 03:24:13;;;;;;;;;18.00;14.25;;;;;-147.17;96.30;50556.63;5015853;28;50988;-61
2021/11/25 03:26:38;;;;;;;;;18.00;18.00;;;;;-147.17;96.14;50529.06;5033625;28;51184;-61
2021/11/25 03:29:04;;;;;;;;;18.00;17.00;;;;;-147.17;96.12;50548.75;5047019;28;51236;-61
2021/11/25 03:31:32;;;;;;;;;16.75;15.50;;;;;-147.17;96.32;50525.13;5030222;28;51252;-61
2021/11/25 03:33:59;;;;;;;;;18.75;15.25;;;;;-147.17;96.40;50558.59;5021080;28;51016;-61
2021/11/25 03:36:26;;;;;;;;;18.50;17.25;;;;;-147.17;96.39;50515.28;5032806;28;51538;-61
2021/11/25 03:38:52;;;;;;;;;18.50;16.50;;;;;-147.17;96.47;50544.81;5033590;28;51009;-61
2021/11/25 03:41:19;;;;;;;;;22.00;19.75;;;;;-147.17;96.78;50527.09;5027056;28;51159;-61
2021/11/25 03:43:44;;;;;;;;;19.00;18.25;;;;;-147.17;96.89;50497.56;5023184;28;51162;-61
2021/11/25 03:46:10;;;;;;;;;18.25;17.50;;;;;-147.17;96.94;50529.06;5032958;28;51511;-62
2021/11/25 03:48:36;;;;;;;;;21.25;19.75;;;;;-147.17;97.22;50558.59;5033668;28;50955;-61
2021/11/25 03:51:04;;;;;;;;;21.25;19.50;;;;;-147.17;97.19;50513.31;5033387;28;51309;-61
2021/11/25 03:53:31;;;;;;;;;17.75;17.00;;;;;-147.17;97.43;50529.06;5033814;28;51283;-61
2021/11/25 03:55:56;;;;;;;;;16.50;13.75;;;;;-147.17;97.40;50529.06;5029905;28;51086;-61
2021/11/25 03:58:22;;;;;;;;;22.25;20.50;;;;;-147.17;97.84;50548.75;5033160;28;50935;-62
2021/11/25 04:00:52;;;;;;;;;20.00;19.00;;;;;-147.17;97.79;50521.19;5032892;28;51083;-61
2021/11/25 04:03:18;;;;;;;;;18.75;17.00;;;;;-147.17;97.85;50523.16;5033863;28;51146;-61
2021/11/25 04:05:43;;;;;;;;;23.00;21.50;;;;;-147.17;97.98;50529.06;5032398;28;52202;-61
2021/11/25 04:08:09;;;;;;;;;20.75;20.75;;;;;-147.17;97.91;50511.34;5032303;28;50933;-61
2021/11/25 04:10:34;;;;;;;;;19.50;17.75;;;;;-147.17;98.02;50536.94;5033202;28;51427;-61
2021/11/25 04:12:59;;;;;;;;;19.25;18.50;;;;;-147.17;97.96;50533.00;5024749;28;51192;-60
2021/11/25 04:15:25;;;;;;;;;23.00;22.00;;;;;-147.17;98.04;50527.09;5030811;28;51089;-61
2021/11/25 04:17:50;;;;;;;;;23.00;22.50;;;;;-147.17;97.94;50529.06;5031386;28;51301;-61
2021/11/25 04:20:16;;;;;;;;;23.25;19.75;;;;;-147.17;98.18;50534.97;5018477;28;50891;-61
2021/11/25 04:22:43;;;;;;;;;22.25;20.25;;;;;-147.17;98.44;50525.13;5013667;28;51063;-61
2021/11/25 04:25:09;;;;;;;;;20.75;19.75;;;;;-147.17;98.68;50513.31;5037338;28;53219;-61
2021/11/25 04:27:35;;;;;;;;;25.50;23.00;;;;;-147.17;99.03;50538.91;5033851;28;51113;-61
2021/11/25 04:30:10;;;;;;;;;30.75;26.25;;;;;-147.17;99.51;50505.44;5032592;28;50963;-61
2021/11/25 04:35:32;;;;;;;;;27.75;23.75;;;;;-147.17;100.00;50534.97;5032039;28;51448;-61
2021/11/25 04:38:01;;;;;;;;;34.50;28.75;;;;;-147.17;100.00;50513.31;5031764;28;51054;-61
2021/11/25 04:40:27;;;;;;;;;29.75;28.00;;;;;-147.17;100.00;50477.88;5032735;28;51032;-61
2021/11/25 04:42:52;;;;;;;;;33.00;32.25;;;;;-147.17;100.00;50507.41;5032862;28;51038;-61
2021/11/25 04:45:18;;;;;;;;;31.00;31.00;;;;;-147.17;100.00;50470.00;5032240;28;51050;-61
2021/11/25 04:47:44;;;;;;;;;41.25;36.75;;;;;-147.17;100.00;50491.66;5018935;28;51070;-61
2021/11/25 04:50:09;;;;;;;;;35.00;32.00;;;;;-147.17;100.00;50505.44;5032684;28;51720;-61
2021/11/25 04:52:34;;;;;;;;;33.25;32.25;;;;;-147.17;100.00;50481.81;5025263;28;51365;-61
2021/11/25 04:55:00;;;;;;;;;38.00;32.25;;;;;-147.17;100.00;50493.63;5031801;28;51704;-61
2021/11/25 04:57:25;;;;;;;;;46.75;38.75;;;;;-147.17;100.00;50477.88;5030419;28;51017;-61
2021/11/25 04:59:51;;;;;;;;;36.00;31.75;;;;;-147.17;100.00;50471.97;5012598;28;51229;-61
2021/11/25 05:02:16;;;;;;;;;36.75;33.50;;;;;-147.17;100.00;50471.97;5012876;28;51246;-61
2021/11/25 05:04:41;;;;;;;;;35.25;34.25;;;;;-147.17;100.00;50466.06;5018253;28;50865;-61
2021/11/25 05:07:07;;;;;;;;;50.00;42.75;;;;;-147.17;100.00;50434.56;5032041;28;51116;-61
2021/11/25 05:09:32;;;;;;;;;47.25;39.25;;;;;-147.17;100.00;50430.63;5027743;28;50948;-61
2021/11/25 05:11:58;;;;;;;;;42.00;38.50;;;;;-147.17;100.00;50448.34;5030054;28;51141;-60
2021/11/25 05:14:23;;;;;;;;;43.75;39.00;;;;;-147.17;100.00;50444.41;5029511;28;53414;-61
2021/11/25 05:16:48;;;;;;;;;44.50;39.50;;;;;-147.17;100.00;50432.59;5023364;28;51070;-61
2021/11/25 05:19:16;;;;;;;;;47.25;40.25;;;;;-147.17;100.00;50422.75;5023577;28;51160;-61
2021/11/25 05:21:42;;;;;;;;;55.50;44.00;;;;;-147.17;100.00;50454.25;5022457;28;51375;-61
2021/11/25 05:24:08;;;;;;;;;49.50;42.50;;;;;-147.17;100.00;50450.31;5028035;28;51177;-61
2021/11/25 05:26:33;;;;;;;;;55.50;42.50;;;;;-147.17;100.00;50452.28;5030920;28;51309;-61
2021/11/25 05:28:59;;;;;;;;;51.50;42.50;;;;;-147.17;100.00;50442.44;5033482;28;51225;-61
2021/11/25 05:31:24;;;;;;;;;42.25;37.00;;;;;-147.17;100.00;50448.34;5016260;28;51293;-61
2021/11/25 05:33:50;;;;;;;;;51.25;43.00;;;;;-147.17;100.00;50442.44;5015872;28;51813;-60
2021/11/25 05:36:15;;;;;;;;;55.75;44.50;;;;;-147.17;100.00;50454.25;5031205;28;51046;-60
2021/11/25 05:38:41;;;;;;;;;48.50;42.25;;;;;-147.17;100.00;50408.97;5022374;28;51036;-60
2021/11/25 05:41:06;;;;;;;;;49.75;41.25;;;;;-147.17;100.00;50428.66;5027079;28;51042;-60
2021/11/25 05:43:31;;;;;;;;;56.00;44.00;;;;;-147.17;100.00;50436.53;5023817;28;51128;-60
2021/11/25 05:45:57;;;;;;;;;53.50;44.25;;;;;-147.17;100.00;50399.13;5033628;28;51053;-61
2021/11/25 05:48:23;;;;;;;;;47.75;42.75;;;;;-147.17;100.00;50448.34;5035446;28;51141;-60
2021/11/25 05:50:50;;;;;;;;;54.75;43.75;;;;;-147.17;100.00;50428.66;5034809;28;51339;-61
2021/11/25 05:53:18;;;;;;;;;57.00;43.75;;;;;-147.17;100.00;50418.81;5023511;28;51246;-60
2021/11/25 05:55:44;;;;;;;;;54.00;43.50;;;;;-147.17;100.00;50434.56;5031376;28;51210;-60
2021/11/25 05:58:10;;;;;;;;;53.75;46.00;;;;;-147.17;100.00;50418.81;5034313;28;50973;-61
2021/11/25 06:00:35;;;;;;;;;56.25;44.25;;;;;-147.17;100.00;50426.69;5032479;28;51357;-61
2021/11/25 06:03:01;;;;;;;;;51.25;43.00;;;;;-147.17;100.00;50426.69;5035178;28;52886;-61
2021/11/25 06:05:27;;;;;;;;;54.50;43.75;;;;;-147.17;100.00;50414.88;5032333;28;50987;-60
2021/11/25 06:07:53;;;;;;;;;55.75;43.50;;;;;-147.17;100.00;50430.63;5029326;28;50895;-60
2021/11/25 06:10:21;;;;;;;;;56.75;47.75;;;;;-147.17;100.00;50397.16;5034328;28;50994;-60
2021/11/25 06:12:48;;;;;;;;;53.25;44.50;;;;;-147.17;100.00;50438.50;5034651;28;51784;-60
2021/11/25 06:15:13;;;;;;;;;45.75;40.00;;;;;-147.17;100.00;50422.75;5033549;28;51190;-61
2021/11/25 06:17:39;;;;;;;;;52.00;44.50;;;;;-147.17;100.00;50414.88;5035186;28;52363;-60
2021/11/25 06:20:11;;;;;;;;;55.00;43.25;;;;;-147.17;100.00;50416.84;5023632;28;51174;-63
2021/11/25 06:22:36;;;;;;;;;56.50;45.75;;;;;-147.17;100.00;50414.88;5024993;28;51760;-61
2021/11/25 06:25:02;;;;;;;;;53.75;44.50;;;;;-147.17;100.00;50422.75;5022420;28;51078;-60
2021/11/25 06:27:27;;;;;;;;;66.00;48.50;;;;;-147.17;100.00;50414.88;5021096;28;51207;-60
2021/11/25 06:29:53;;;;;;;;;56.00;44.25;;;;;-147.17;100.00;50416.84;5028828;28;51428;-61
2021/11/25 06:32:18;;;;;;;;;54.25;42.50;;;;;-147.17;100.00;50414.88;5027143;28;51005;-61
2021/11/25 06:34:43;;;;;;;;;57.00;48.00;;;;;-147.17;100.00;50414.88;5044471;28;51188;-61
2021/11/25 06:37:09;;;;;;;;;56.25;44.25;;;;;-147.17;100.00;50430.63;5034418;28;51219;-61
2021/11/25 06:39:34;;;;;;;;;55.50;46.25;;;;;-147.17;100.00;50426.69;5032101;28;51144;-61
2021/11/25 06:41:59;;;;;;;;;54.75;45.00;;;;;-147.17;100.00;50385.34;5041463;28;51134;-61
2021/11/25 06:44:25;;;;;;;;;57.00;44.25;;;;;-147.17;100.00;50381.41;5038865;28;51046;-61
2021/11/25 06:46:50;;;;;;;;;56.75;45.75;;;;;-147.17;100.00;50420.78;5026361;28;51138;-61
2021/11/25 06:49:15;;;;;;;;;56.25;46.75;;;;;-147.17;100.00;50428.66;5027598;28;51226;-61
2021/11/25 06:51:41;;;;;;;;;54.75;44.00;;;;;-147.17;100.00;50430.63;5014102;28;52704;-61
2021/11/25 06:54:07;;;;;;;;;48.50;37.75;;;;;-147.17;100.00;50434.56;5025058;28;51262;-64
2021/11/25 06:56:32;;;;;;;;;58.25;44.00;;;;;-147.17;100.00;50399.13;5021021;28;51059;-64
2021/11/25 06:58:57;;;;;;;;;55.00;46.75;;;;;-147.17;100.00;50418.81;5034076;28;51211;-63
2021/11/25 07:01:24;;;;;;;;;57.25;44.00;;;;;-147.17;100.00;50403.06;5038671;28;51954;-63
2021/11/25 07:03:50;;;;;;;;;53.00;42.25;;;;;-147.17;100.00;50446.38;5031058;28;51046;-63
2021/11/25 07:06:15;;;;;;;;;62.50;47.75;;;;;-147.17;100.00;50399.13;5033140;28;50899;-63
2021/11/25 07:08:41;;;;;;;;;58.25;45.00;;;;;-147.17;100.00;50403.06;5033652;28;50968;-63
2021/11/25 07:11:06;;;;;;;;;62.50;48.50;;;;;-147.17;100.00;50393.22;5035615;28;51771;-64
2021/11/25 07:13:32;;;;;;;;;60.75;48.25;;;;;-147.17;100.00;50418.81;5032142;28;51122;-64
2021/11/25 07:15:57;;;;;;;;;62.75;49.50;;;;;-147.17;100.00;50426.69;5033094;28;51217;-63
2021/11/25 07:18:22;;;;;;;;;57.50;45.00;;;;;-147.17;100.00;50432.59;5032275;28;51040;-63
2021/11/25 07:20:48;;;;;;;;;56.50;48.00;;;;;-147.17;100.00;50391.25;5032804;28;51847;-64
2021/11/25 07:23:13;;;;;;;;;58.25;45.50;;;;;-147.17;100.00;50407.00;5047126;28;51132;-65
2021/11/25 07:25:39;;;;;;;;;57.75;46.25;;;;;-147.17;100.00;50418.81;5032072;28;51478;-66
2021/11/25 07:28:04;;;;;;;;;57.00;47.25;;;;;-147.17;100.00;50391.25;5033131;28;51198;-64
2021/11/25 07:30:30;;;;;;;;;61.25;47.25;;;;;-147.17;100.00;50418.81;5025258;28;51735;-63
2021/11/25 07:32:55;;;;;;;;;63.75;49.25;;;;;-147.17;100.00;50418.81;5027824;28;51115;-63
2021/11/25 07:35:21;;;;;;;;;56.00;45.75;;;;;-147.17;100.00;50403.06;5028911;28;51262;-63
2021/11/25 07:37:50;;;;;;;;;49.50;43.00;;;;;-147.17;100.00;50414.88;5032838;28;51129;-63
2021/11/25 07:40:16;;;;;;;;;60.50;46.50;;;;;-147.17;100.00;50408.97;5030688;28;51408;-62
2021/11/25 07:42:43;;;;;;;;;55.75;46.50;;;;;-147.17;100.00;50407.00;5027849;28;51361;-62
2021/11/25 07:45:10;;;;;;;;;60.00;46.00;;;;;-147.17;100.00;50383.38;5047800;28;51076;-64
2021/11/25 07:47:37;;;;;;;;;57.75;46.75;;;;;-147.17;100.00;50407.00;5024811;28;51075;-61
2021/11/25 07:50:09;;;;;;;;;64.00;51.00;;;;;-147.17;100.00;50430.63;5027619;28;51743;-62
2021/11/25 07:52:35;;;;;;;;;61.50;47.50;;;;;-147.17;100.00;50420.78;5033360;28;51263;-60
2021/11/25 07:55:02;;;;;;;;;57.75;47.00;;;;;-147.17;100.00;50426.69;5029716;28;51282;-62
2021/11/25 07:57:28;;;;;;;;;57.50;48.00;;;;;-147.17;100.00;50401.09;5030538;28;51133;-67
2021/11/25 07:59:53;;;;;;;;;62.75;48.25;;;;;-147.17;100.00;50412.91;5030564;28;52410;-66
2021/11/25 08:02:20;;;;;;;;;59.75;48.00;;;;;-147.17;100.00;50387.31;5013607;28;51372;-69
2021/11/25 08:04:49;;;;;;;;;61.25;50.00;;;;;-147.17;100.00;50418.81;5029326;28;51190;-66
2021/11/25 08:07:15;;;;;;;;;57.00;46.00;;;;;-147.17;100.00;50412.91;5020916;28;51372;-68
2021/11/25 08:09:41;;;;;;;;;50.75;44.00;;;;;-147.17;100.00;50430.63;5030604;28;51369;-66
2021/11/25 08:12:07;;;;;;;;;56.75;47.25;;;;;-147.17;100.00;50438.50;5033906;28;51674;-66
2021/11/25 08:14:39;;;;;;;;;57.75;47.25;;;;;-147.17;100.00;50422.75;5028572;28;51007;-66
2021/11/25 08:17:05;;;;;;;;;64.00;52.00;;;;;-147.17;100.00;50418.81;5046816;28;51213;-66
2021/11/25 08:19:31;;;;;;;;;64.00;50.25;;;;;-147.17;100.00;50438.50;5031385;28;51389;-68
2021/11/25 08:21:56;;;;;;;;;59.50;45.50;;;;;-147.17;100.00;50416.84;5025754;28;51210;-67
2021/11/25 08:24:22;;;;;;;;;68.00;53.50;;;;;-147.17;100.00;50438.50;5035159;28;51269;-68
2021/11/25 08:26:47;;;;;;;;;59.75;47.50;;;;;-147.17;100.00;50422.75;5053447;28;50802;-72
2021/11/25 08:29:12;;;;;;;;;65.75;51.75;;;;;-147.17;100.00;50422.75;5044631;28;51416;-65
2021/11/25 08:31:38;;;;;;;;;55.50;44.50;;;;;-147.17;100.00;50446.38;5035829;28;50930;-65
2021/11/25 08:34:04;;;;;;;;;51.00;42.50;;;;;-147.17;100.00;50407.00;5037134;28;51179;-69
2021/11/25 08:36:30;;;;;;;;;57.50;45.00;;;;;-147.17;100.00;50442.44;5047601;28;50818;-68
2021/11/25 08:38:55;;;;;;;;;59.00;45.25;;;;;-147.17;100.00;50454.25;5039330;28;51941;-68
2021/11/25 08:41:21;;;;;;;;;59.25;48.00;;;;;-147.17;100.00;50418.81;5023352;28;51110;-69
2021/11/25 08:43:47;;;;;;;;;58.25;48.50;;;;;-147.17;100.00;50389.28;5012193;28;51004;-67
2021/11/25 08:46:12;;;;;;;;;55.75;46.75;;;;;-147.17;100.00;50454.25;5012886;28;51321;-68
2021/11/25 08:48:38;;;;;;;;;57.50;47.50;;;;;-147.17;100.00;50446.38;5012542;28;52466;-66
2021/11/25 08:51:04;;;;;;;;;60.50;50.25;;;;;-147.17;100.00;50444.41;5029027;28;51228;-70
2021/11/25 08:53:30;;;;;;;;;56.00;45.75;;;;;-147.17;100.00;50432.59;5047941;28;51126;-71
2021/11/25 08:55:56;;;;;;;;;60.25;50.50;;;;;-147.17;100.00;50430.63;5032665;28;51044;-70
2021/11/25 08:58:22;;;;;;;;;56.00;46.75;;;;;-147.17;100.00;50438.50;5031026;28;51085;-70
2021/11/25 09:00:48;;;;;;;;;66.50;54.00;;;;;-147.17;100.00;50432.59;5029609;28;51166;-63
2021/11/25 09:03:13;;;;;;;;;64.00;52.25;;;;;-147.17;100.00;50470.00;5029909;28;51058;-63
2021/11/25 09:05:39;;;;;;;;;61.25;48.50;;;;;-147.17;100.00;50434.56;5021345;28;50971;-64
2021/11/25 09:08:04;;;;;;;;;64.25;50.50;;;;;-147.17;100.00;50430.63;5033211;28;51127;-64
2021/11/25 09:10:30;;;;;;;;;57.75;47.75;;;;;-147.17;100.00;50462.13;5033140;28;50952;-64
2021/11/25 09:12:56;;;;;;;;;65.75;48.00;;;;;-147.17;100.00;50454.25;5033027;28;51096;-65
2021/11/25 09:15:22;;;;;;;;;57.75;48.25;;;;;-147.17;100.00;50460.16;5032763;28;50945;-64
2021/11/25 09:17:47;;;;;;;;;57.00;48.75;;;;;-147.17;100.00;50458.19;5020727;28;51878;-60
2021/11/25 09:20:13;;;;;;;;;64.00;51.75;;;;;-147.17;100.00;50485.75;5022076;28;51138;-62
2021/11/25 09:22:39;;;;;;;;;58.00;47.75;;;;;-147.17;100.00;50470.00;5022826;28;50987;-61
2021/11/25 09:25:05;;;;;;;;;58.00;48.75;;;;;-147.17;100.00;50477.88;5032231;28;50919;-61
2021/11/25 09:27:34;;;;;;;;;60.75;49.00;;;;;-147.17;100.00;50479.84;5032744;28;52320;-61
2021/11/25 09:29:59;;;;;;;;;61.75;50.00;;;;;-147.17;100.00;50521.19;5031930;28;51055;-62
2021/11/25 09:32:26;;;;;;;;;62.75;50.75;;;;;-147.17;100.00;50497.56;5028672;28;51061;-62
2021/11/25 09:34:52;;;;;;;;;64.50;49.50;;;;;-147.17;100.00;50513.31;5032875;28;51035;-61
2021/11/25 09:37:18;;;;;;;;;60.75;48.75;;;;;-147.17;100.00;50491.66;5032422;28;52018;-63
2021/11/25 09:39:43;;;;;;;;;61.50;47.25;;;;;-147.17;100.00;50493.63;5025470;28;51106;-61
2021/11/25 09:42:09;;;;;;;;;59.25;48.75;;;;;-147.17;100.00;50513.31;5021856;28;50954;-62
2021/11/25 09:44:34;;;;;;;;;60.00;48.75;;;;;-147.17;100.00;50466.06;5019610;28;51321;-61
2021/11/25 09:47:00;;;;;;;;;59.50;47.75;;;;;-147.17;100.00;50497.56;5028855;28;51888;-61
2021/11/25 09:49:27;;;;;;;;;55.25;46.25;;;;;-147.17;100.00;50513.31;5026289;28;50904;-62
2021/11/25 09:51:54;;;;;;;;;57.75;48.00;;;;;-147.17;100.00;50497.56;5015985;28;51108;-61
2021/11/25 09:54:20;;;;;;;;;57.00;45.00;;;;;-147.17;100.00;50540.88;5047490;28;50905;-62
2021/11/25 09:56:47;;;;;;;;;57.25;47.00;;;;;-147.17;100.00;50538.91;5029597;28;53451;-62
2021/11/25 09:59:13;;;;;;;;;54.00;44.75;;;;;-147.17;100.00;50517.25;5030803;28;51189;-60
2021/11/25 10:01:38;;;;;;;;;60.25;49.75;;;;;-147.17;100.00;50556.63;5018205;28;51175;-62
2021/11/25 10:04:04;;;;;;;;;57.50;48.50;;;;;-147.17;100.00;50534.97;5029203;28;51058;-60
2021/11/25 10:06:33;;;;;;;;;58.75;46.00;;;;;-147.17;100.00;50523.16;5021444;28;51706;-61
2021/11/25 10:09:00;;;;;;;;;59.50;47.75;;;;;-147.17;100.00;50533.00;5024888;28;51096;-61
2021/11/25 10:11:33;;;;;;;;;54.75;43.75;;;;;-147.17;100.00;50552.69;5031231;28;51021;-60
2021/11/25 10:14:12;;;;;;;;;57.25;47.75;;;;;-147.17;100.00;50536.94;5031627;28;51264;-59
2021/11/25 10:16:50;;;;;;;;;56.25;47.00;;;;;-147.17;100.00;50533.00;5027719;28;51791;-58
2021/11/25 10:19:22;;;;;;;;;59.00;48.00;;;;;-147.17;100.00;50554.66;5026134;28;51101;-58
2021/11/25 10:21:56;;;;;;;;;59.25;49.00;;;;;-147.17;100.00;50546.78;5033990;28;51098;-59
2021/11/25 10:24:38;;;;;;;;;62.50;48.00;;;;;-147.17;100.00;50533.00;5022455;28;50973;-60
2021/11/25 10:27:22;;;;;;;;;64.00;50.50;;;;;-147.17;100.00;50531.03;5031228;28;51807;-60
2021/11/25 10:29:49;;;;;;;;;62.00;51.75;;;;;-147.17;100.00;50536.94;5033911;28;51136;-59
2021/11/25 10:32:17;;;;;;;;;57.75;47.75;;;;;-147.17;100.00;50564.50;5029463;28;50959;-60
2021/11/25 10:34:54;;;;;;;;;59.25;48.00;;;;;-147.17;100.00;50548.75;5021381;28;51295;-60
2021/11/25 10:40:28;;;;;;;;;64.25;50.50;;;;;-147.17;100.00;50560.56;5012115;28;51158;-60
2021/11/25 10:42:54;;;;;;;;;61.75;52.00;;;;;-147.17;100.00;50560.56;5034568;28;51107;-61
2021/11/25 10:45:20;;;;;;;;;69.75;54.75;;;;;-147.17;100.00;50507.41;5032696;28;51009;-61
2021/11/25 10:48:01;;;;;;;;;64.50;50.00;;;;;-147.17;100.00;50525.13;5029906;28;50926;-60
2021/11/25 10:50:28;;;;;;;;;67.75;52.00;;;;;-147.17;100.00;50568.44;5019202;28;50927;-62
2021/11/25 10:53:02;;;;;;;;;63.50;52.50;;;;;-147.17;100.00;50548.75;5033002;28;51007;-62
2021/11/25 10:55:28;;;;;;;;;65.00;53.00;;;;;-147.17;100.00;50580.25;5030342;28;51158;-62
2021/11/25 10:57:57;;;;;;;;;63.75;52.00;;;;;-147.17;100.00;50564.50;5021974;28;50991;-62
2021/11/25 11:00:34;;;;;;;;;57.50;46.50;;;;;-147.17;100.00;50527.09;5033297;28;51114;-62